Time;durP1;ratioP1;P1;durP2;ratioP2;P2;SDS_P1;SDS_P2;PMS_P1;PMS_P2;Temp;Humidity;BMP_temperature;BMP_pressure;BME280_temperature;BME280_humidity;BME280_pressure;Samples;Min_cycle;Max_cycle;Signal;HPM_P1;HPM_P2
2023/06/12 00:02:00;;;;;;;4.17;2.40;;;;;;;17.26;35.79;101299.69;4990280;28;20195;-70
2023/06/12 00:04:27;;;;;;;3.97;2.40;;;;;;;17.20;35.55;101303.78;4993082;28;20220;-70
2023/06/12 00:06:53;;;;;;;4.07;2.50;;;;;;;17.15;35.66;101294.16;4980536;28;20220;-70
2023/06/12 00:09:20;;;;;;;3.77;2.60;;;;;;;17.13;35.68;101296.38;4988769;28;20710;-70
2023/06/12 00:11:47;;;;;;;3.53;2.20;;;;;;;17.08;35.70;101302.00;4990087;28;20294;-70
2023/06/12 00:14:14;;;;;;;2.60;2.30;;;;;;;17.05;35.79;101299.28;4986369;28;20282;-70
2023/06/12 00:16:41;;;;;;;3.30;2.47;;;;;;;16.99;35.84;101301.47;4989678;28;20205;-70
2023/06/12 00:19:08;;;;;;;2.90;2.20;;;;;;;16.93;35.71;101294.09;4989520;28;20209;-70
2023/06/12 00:21:35;;;;;;;2.63;2.37;;;;;;;16.89;36.15;101301.22;4983198;28;20225;-70
2023/06/12 00:24:02;;;;;;;3.70;2.37;;;;;;;16.83;36.21;101291.97;4978427;28;20227;-70
2023/06/12 00:26:28;;;;;;;3.10;2.40;;;;;;;16.78;36.16;101294.91;4990063;28;20748;-70
2023/06/12 00:28:56;;;;;;;3.70;2.73;;;;;;;16.72;36.73;101294.38;4990192;28;20622;-70
2023/06/12 00:31:23;;;;;;;3.60;2.60;;;;;;;16.66;36.34;101293.13;4988578;28;20538;-70
2023/06/12 00:33:51;;;;;;;3.27;2.30;;;;;;;16.62;37.25;101296.84;4992067;28;20226;-70
2023/06/12 00:36:18;;;;;;;2.60;2.33;;;;;;;16.56;36.42;101288.31;4987919;28;20237;-69
2023/06/12 00:38:45;;;;;;;3.80;2.53;;;;;;;16.50;37.01;101283.63;4989009;28;20213;-70
2023/06/12 00:41:11;;;;;;;2.77;2.40;;;;;;;16.46;36.96;101288.09;4990043;28;20864;-70
2023/06/12 00:43:38;;;;;;;5.23;2.50;;;;;;;16.41;37.01;101294.47;4989060;28;20228;-70
2023/06/12 00:46:04;;;;;;;4.33;2.50;;;;;;;16.35;36.98;101279.06;4990227;28;20205;-70
2023/06/12 00:48:32;;;;;;;2.40;2.20;;;;;;;16.31;37.82;101283.53;4990108;28;20247;-70
2023/06/12 00:51:00;;;;;;;2.83;2.50;;;;;;;16.25;37.20;101282.28;4989975;28;20197;-70
2023/06/12 00:53:27;;;;;;;4.43;2.40;;;;;;;16.20;37.12;101282.53;4988394;28;21234;-70
2023/06/12 00:55:54;;;;;;;4.23;2.57;;;;;;;16.16;38.18;101279.78;4988218;28;20200;-70
2023/06/12 00:58:21;;;;;;;2.83;2.23;;;;;;;16.11;37.29;101281.94;4990062;28;20201;-70
2023/06/12 01:00:48;;;;;;;2.73;2.33;;;;;;;16.05;37.79;101284.06;4988584;28;20209;-70
2023/06/12 01:03:15;;;;;;;2.60;2.40;;;;;;;16.01;38.20;101288.56;4985039;28;20225;-70
2023/06/12 01:05:43;;;;;;;4.17;2.53;;;;;;;15.98;37.38;101285.78;4969088;28;20281;-70
2023/06/12 01:08:20;;;;;;;2.50;2.10;;;;;;;15.95;37.91;101287.28;4987679;28;20205;-70
2023/06/12 01:10:53;;;;;;;2.73;2.20;;;;;;;15.91;37.47;101285.63;4988092;28;20201;-70
2023/06/12 01:13:21;;;;;;;4.67;2.33;;;;;;;15.87;38.11;101282.09;4989567;28;20735;-70
2023/06/12 01:15:49;;;;;;;3.93;2.47;;;;;;;15.83;38.05;101273.25;4988160;28;20296;-70
2023/06/12 01:18:17;;;;;;;5.47;2.53;;;;;;;15.79;38.54;101281.16;4990571;28;20197;-70
2023/06/12 01:20:44;;;;;;;4.57;2.53;;;;;;;15.76;39.77;101283.72;4988165;28;20215;-70
2023/06/12 01:23:20;;;;;;;4.70;2.27;;;;;;;15.71;38.59;101287.41;4988533;28;20221;-70
2023/06/12 01:26:04;;;;;;;3.50;2.37;;;;;;;15.67;38.47;101280.44;4996291;28;20249;-70
2023/06/12 01:28:55;;;;;;;4.07;2.50;;;;;;;15.61;38.69;101279.94;4995521;28;20209;-70
2023/06/12 01:31:27;;;;;;;5.97;2.40;;;;;;;15.55;37.87;101275.97;4991208;28;20194;-70
2023/06/12 01:34:02;;;;;;;5.07;2.40;;;;;;;15.52;39.03;101283.88;5008270;28;20229;-70
2023/06/12 01:36:36;;;;;;;6.37;3.00;;;;;;;15.47;38.45;101281.47;4991804;28;20201;-70
2023/06/12 01:39:04;;;;;;;4.93;2.63;;;;;;;15.42;38.04;101271.81;4992033;28;20205;-69
2023/06/12 01:41:32;;;;;;;2.67;2.30;;;;;;;15.40;37.99;101279.38;4991845;28;20272;-70
2023/06/12 01:44:07;;;;;;;7.10;2.73;;;;;;;15.36;38.74;101288.41;4992091;28;20259;-70
2023/06/12 01:46:35;;;;;;;4.37;3.23;;;;;;;15.32;38.42;101288.25;4993033;28;20197;-70
2023/06/12 01:49:04;;;;;;;4.47;2.83;;;;;;;15.28;38.70;101282.06;4991457;28;20197;-70
2023/06/12 01:51:30;;;;;;;4.30;2.53;;;;;;;15.24;38.29;101283.06;4992005;28;20676;-70
2023/06/12 01:53:58;;;;;;;6.40;2.43;;;;;;;15.20;39.76;101277.66;5000350;28;20220;-70
2023/06/12 01:56:25;;;;;;;4.00;2.50;;;;;;;15.15;38.89;101277.91;5011099;28;20208;-70
2023/06/12 01:58:53;;;;;;;3.00;2.50;;;;;;;15.12;38.82;101273.25;5011117;28;20212;-70
2023/06/12 02:01:42;;;;;;;5.93;3.03;;;;;;;15.06;39.86;101273.84;5000143;28;20208;-70
2023/06/12 02:04:11;;;;;;;5.43;2.67;;;;;;;15.04;39.76;101278.72;4990948;28;20232;-70
2023/06/12 02:06:37;;;;;;;3.37;2.80;;;;;;;15.02;39.37;101280.94;4991218;28;20211;-69
2023/06/12 02:09:03;;;;;;;4.23;2.50;;;;;;;14.94;39.74;101273.88;4975458;28;20307;-70
2023/06/12 02:11:31;;;;;;;5.27;3.20;;;;;;;14.87;40.17;101279.78;4985015;28;20505;-70
2023/06/12 02:13:58;;;;;;;6.47;2.80;;;;;;;14.81;40.22;101275.78;4991239;28;20330;-70
2023/06/12 02:16:27;;;;;;;4.83;2.50;;;;;;;14.77;41.37;101271.50;4991409;28;20222;-70
2023/06/12 02:18:53;;;;;;;3.03;2.50;;;;;;;14.74;41.34;101277.50;4992587;28;20273;-70
2023/06/12 02:21:22;;;;;;;7.60;3.07;;;;;;;14.68;41.01;101276.16;5002732;28;20582;-70
2023/06/12 02:23:48;;;;;;;4.70;3.00;;;;;;;14.64;41.36;101281.38;4992075;28;20272;-70
2023/06/12 02:26:18;;;;;;;2.80;2.50;;;;;;;14.58;41.66;101282.72;4991086;28;20293;-70
2023/06/12 02:28:46;;;;;;;3.30;2.50;;;;;;;14.53;46.12;101282.16;4992228;28;20198;-70
2023/06/12 02:31:13;;;;;;;3.73;2.57;;;;;;;14.50;46.43;101280.19;4991067;28;20238;-70
2023/06/12 02:33:39;;;;;;;5.70;2.70;;;;;;;14.46;48.16;101285.41;4990890;28;20240;-70
2023/06/12 02:36:07;;;;;;;5.30;3.03;;;;;;;14.43;50.31;101291.38;4992118;28;20202;-70
2023/06/12 02:38:36;;;;;;;3.77;2.67;;;;;;;14.38;49.20;101296.16;4990433;28;20430;-70
2023/06/12 02:41:02;;;;;;;3.60;2.90;;;;;;;14.32;48.31;101290.25;4990021;28;20447;-70
2023/06/12 02:43:28;;;;;;;3.20;2.67;;;;;;;14.30;51.74;101295.16;4990374;28;20316;-70
2023/06/12 02:45:55;;;;;;;4.70;2.90;;;;;;;14.24;48.79;101298.34;4995099;28;20203;-70
2023/06/12 02:48:24;;;;;;;5.50;2.93;;;;;;;14.21;50.38;101302.44;4990465;28;20199;-70
2023/06/12 02:50:50;;;;;;;2.60;2.23;;;;;;;14.18;52.00;101294.34;4990316;28;20208;-70
2023/06/12 02:53:18;;;;;;;4.03;2.90;;;;;;;14.13;53.29;101294.56;4978991;28;20239;-70
2023/06/12 02:55:46;;;;;;;7.13;2.70;;;;;;;14.10;51.02;101305.81;4988922;28;20199;-70
2023/06/12 02:58:13;;;;;;;4.03;2.50;;;;;;;14.05;49.88;101309.50;4990569;28;20254;-70
2023/06/12 03:00:40;;;;;;;5.47;3.10;;;;;;;13.99;47.07;101307.38;4990014;28;20502;-70
2023/06/12 03:03:07;;;;;;;4.20;2.50;;;;;;;13.93;45.92;101306.78;5000120;28;20318;-70
2023/06/12 03:05:34;;;;;;;5.33;3.20;;;;;;;13.89;45.89;101303.28;4996369;28;20214;-70
2023/06/12 03:08:02;;;;;;;4.27;2.60;;;;;;;13.85;44.40;101304.25;4990346;28;20213;-70
2023/06/12 03:10:29;;;;;;;2.73;2.47;;;;;;;13.84;46.36;101315.97;4989993;28;20585;-70
2023/06/12 03:12:58;;;;;;;4.07;2.37;;;;;;;13.82;45.74;101313.63;4990310;28;20230;-70
2023/06/12 03:15:24;;;;;;;3.57;2.50;;;;;;;13.81;45.75;101308.69;4990004;28;20221;-70
2023/06/12 03:17:50;;;;;;;4.37;2.67;;;;;;;13.82;46.65;101316.28;4989860;28;20202;-70
2023/06/12 03:20:17;;;;;;;5.20;2.77;;;;;;;13.80;48.21;101321.16;4992214;28;20192;-70
2023/06/12 03:22:44;;;;;;;3.30;2.80;;;;;;;13.80;47.41;101320.38;4994419;28;20250;-70
2023/06/12 03:25:11;;;;;;;2.67;2.47;;;;;;;13.81;47.71;101321.94;4989814;28;20280;-70
2023/06/12 03:27:38;;;;;;;4.83;2.70;;;;;;;13.81;50.60;101322.72;4990073;28;20917;-70
2023/06/12 03:30:07;;;;;;;3.93;2.60;;;;;;;13.81;50.81;101329.91;4999876;28;20193;-70
2023/06/12 03:32:34;;;;;;;4.37;2.43;;;;;;;13.85;55.17;101328.91;4989540;28;20205;-70
2023/06/12 03:35:03;;;;;;;8.00;3.00;;;;;;;13.84;55.84;101324.72;4989786;28;20205;-70
2023/06/12 03:37:29;;;;;;;4.53;2.87;;;;;;;13.81;51.67;101324.59;4989962;28;20307;-70
2023/06/12 03:40:00;;;;;;;3.73;2.70;;;;;;;13.77;47.31;101321.06;4996712;28;20202;-70
2023/06/12 03:42:28;;;;;;;5.97;3.03;;;;;;;13.76;47.75;101325.56;4989605;28;20684;-70
2023/06/12 03:44:57;;;;;;;3.57;2.30;;;;;;;13.78;47.86;101330.56;4989322;28;20203;-70
2023/06/12 03:47:26;;;;;;;6.73;2.70;;;;;;;13.79;46.26;101326.78;4997455;28;20194;-70
2023/06/12 03:49:53;;;;;;;3.30;2.63;;;;;;;13.81;45.12;101332.56;4993193;28;20272;-70
2023/06/12 03:52:19;;;;;;;4.50;2.77;;;;;;;13.85;44.82;101322.81;4993936;28;20229;-70
2023/06/12 03:54:46;;;;;;;3.03;2.67;;;;;;;13.92;44.58;101325.72;4995132;28;20209;-70
2023/06/12 03:57:13;;;;;;;4.60;2.70;;;;;;;13.96;44.54;101326.59;4990639;28;20182;-70
2023/06/12 03:59:39;;;;;;;3.37;2.70;;;;;;;14.02;44.63;101333.28;4989088;28;20205;-70
2023/06/12 04:02:06;;;;;;;3.77;2.63;;;;;;;14.07;44.36;101335.72;4985687;28;20206;-70
2023/06/12 04:04:33;;;;;;;2.97;2.33;;;;;;;14.14;45.17;101331.41;5003352;28;20301;-70
2023/06/12 04:07:00;;;;;;;7.17;3.10;;;;;;;14.21;44.43;101341.50;5005876;28;20615;-70
2023/06/12 04:09:26;;;;;;;3.43;2.60;;;;;;;14.29;43.97;101333.44;5000670;28;20676;-70
2023/06/12 04:11:54;;;;;;;4.17;2.90;;;;;;;14.36;43.62;101328.34;4985386;28;20577;-70
2023/06/12 04:14:22;;;;;;;4.63;3.13;;;;;;;14.46;43.95;101329.78;4989147;28;20219;-70
2023/06/12 04:16:49;;;;;;;4.13;2.93;;;;;;;14.53;43.97;101328.13;4977711;28;20243;-70
2023/06/12 04:19:18;;;;;;;3.97;3.20;;;;;;;14.64;43.59;101339.84;4988134;28;20212;-70
2023/06/12 04:21:46;;;;;;;6.57;3.40;;;;;;;14.73;43.59;101340.50;4988550;28;20208;-70
2023/06/12 04:24:15;;;;;;;3.07;2.70;;;;;;;14.84;43.90;101346.13;4989331;28;20220;-70
2023/06/12 04:26:44;;;;;;;3.60;3.10;;;;;;;14.92;43.37;101348.69;4988976;28;20292;-70
2023/06/12 04:29:12;;;;;;;3.97;3.10;;;;;;;15.02;43.42;101344.78;4982449;28;20672;-70
2023/06/12 04:31:39;;;;;;;4.00;3.10;;;;;;;15.10;43.32;101346.53;4990183;28;20627;-70
2023/06/12 04:34:06;;;;;;;6.43;2.80;;;;;;;15.20;43.03;101348.72;4989031;28;20692;-70
2023/06/12 04:36:33;;;;;;;6.13;3.00;;;;;;;15.29;43.30;101344.03;4990780;28;20648;-70
2023/06/12 04:39:01;;;;;;;3.57;2.57;;;;;;;15.39;43.33;101357.69;4988663;28;20284;-70
2023/06/12 04:41:28;;;;;;;6.83;3.17;;;;;;;15.50;42.83;101360.63;4988491;28;20296;-70
2023/06/12 04:43:58;;;;;;;4.50;2.80;;;;;;;15.59;42.77;101354.06;4988405;28;20253;-70
2023/06/12 04:46:27;;;;;;;3.73;2.90;;;;;;;15.67;42.47;101349.66;4988703;28;20569;-70
2023/06/12 04:48:54;;;;;;;4.20;3.20;;;;;;;15.77;42.36;101357.16;4980529;28;20620;-70
2023/06/12 04:51:23;;;;;;;3.73;2.97;;;;;;;15.87;41.94;101357.44;4972024;28;20244;-70
2023/06/12 04:53:53;;;;;;;3.77;3.27;;;;;;;15.95;41.58;101353.88;4992476;28;20220;-70
2023/06/12 04:56:21;;;;;;;3.67;2.70;;;;;;;16.04;41.74;101354.47;4996316;28;20301;-70
2023/06/12 04:58:49;;;;;;;6.33;3.20;;;;;;;16.14;41.35;101358.53;4985201;28;20640;-70
2023/06/12 05:01:19;;;;;;;7.80;3.60;;;;;;;16.22;41.26;101355.69;4985953;28;20201;-70
2023/06/12 05:03:46;;;;;;;3.57;3.10;;;;;;;16.32;41.38;101363.16;4988313;28;20225;-70
2023/06/12 05:06:13;;;;;;;3.60;2.80;;;;;;;16.41;41.32;101355.78;4996611;28;20201;-70
2023/06/12 05:08:40;;;;;;;4.97;2.93;;;;;;;16.53;41.33;101368.25;4990673;28;20209;-70
2023/06/12 05:11:06;;;;;;;5.40;3.37;;;;;;;16.61;40.91;101360.06;4986966;28;20221;-70
2023/06/12 05:13:35;;;;;;;4.33;3.53;;;;;;;16.72;41.09;101362.97;4984667;28;20328;-70
2023/06/12 05:16:01;;;;;;;4.10;3.23;;;;;;;16.80;41.05;101362.78;4987658;28;20228;-70
2023/06/12 05:18:27;;;;;;;6.37;4.13;;;;;;;16.90;40.76;101356.13;4996855;28;20202;-70
2023/06/12 05:20:54;;;;;;;4.50;3.60;;;;;;;16.99;40.77;101351.38;5003539;28;20251;-70
2023/06/12 05:23:20;;;;;;;4.53;3.80;;;;;;;17.07;40.80;101361.09;4978351;28;20697;-70
2023/06/12 05:25:47;;;;;;;4.93;3.77;;;;;;;17.14;40.39;101364.69;4987305;28;20214;-70
2023/06/12 05:28:13;;;;;;;5.37;4.27;;;;;;;17.24;40.57;101368.69;4992097;28;20213;-70
2023/06/12 05:30:41;;;;;;;6.93;3.80;;;;;;;17.34;41.02;101368.88;4991563;28;20359;-70
2023/06/12 05:33:08;;;;;;;6.00;4.30;;;;;;;17.41;40.83;101366.41;4991248;28;20639;-70
2023/06/12 05:35:35;;;;;;;7.63;4.10;;;;;;;17.51;40.43;101373.84;4992137;28;20220;-70
2023/06/12 05:38:01;;;;;;;5.80;4.37;;;;;;;17.59;40.42;101374.75;4998318;28;20264;-70
2023/06/12 05:40:29;;;;;;;7.10;4.20;;;;;;;17.65;40.33;101368.00;4990906;28;20264;-70
2023/06/12 05:42:59;;;;;;;4.63;3.70;;;;;;;17.76;40.68;101374.31;4989841;28;20236;-70
2023/06/12 05:45:25;;;;;;;4.57;3.80;;;;;;;17.85;40.67;101370.28;4984103;28;20204;-70
2023/06/12 05:47:53;;;;;;;5.33;3.67;;;;;;;17.94;40.47;101373.50;4996243;28;20204;-70
2023/06/12 05:50:19;;;;;;;7.70;4.17;;;;;;;18.02;40.18;101366.38;4991041;28;20730;-70
2023/06/12 05:52:46;;;;;;;7.27;4.07;;;;;;;18.09;40.46;101369.16;4992225;28;20700;-70
2023/06/12 05:55:12;;;;;;;6.67;3.87;;;;;;;18.16;40.31;101375.41;5000733;28;20244;-70
2023/06/12 05:57:39;;;;;;;5.13;3.77;;;;;;;18.22;40.16;101376.63;4995524;28;20845;-70
2023/06/12 06:00:07;;;;;;;5.73;4.17;;;;;;;18.29;40.00;101376.78;4990785;28;20525;-70
2023/06/12 06:02:42;;;;;;;4.97;3.80;;;;;;;18.35;40.36;101377.25;4994235;28;20571;-70
2023/06/12 06:05:11;;;;;;;6.17;3.67;;;;;;;18.37;40.44;101375.03;5001642;28;20197;-70
2023/06/12 06:07:38;;;;;;;6.27;3.70;;;;;;;18.37;40.49;101377.69;5005834;28;20224;-70
2023/06/12 06:10:06;;;;;;;5.20;3.83;;;;;;;18.36;40.15;101378.84;4988912;28;20205;-70
2023/06/12 06:12:32;;;;;;;5.37;3.63;;;;;;;18.33;40.45;101377.66;4990619;28;20193;-70
2023/06/12 06:14:59;;;;;;;5.10;3.90;;;;;;;18.29;40.79;101376.78;4981969;28;20235;-70
2023/06/12 06:17:26;;;;;;;7.07;4.10;;;;;;;18.26;40.58;101379.41;4988590;28;20199;-70
2023/06/12 06:19:53;;;;;;;5.80;3.90;;;;;;;18.24;40.60;101385.09;4978218;28;20211;-70
2023/06/12 06:22:24;;;;;;;6.80;3.57;;;;;;;18.20;40.55;101384.25;4992802;28;20304;-70
2023/06/12 06:24:51;;;;;;;10.33;3.50;;;;;;;18.20;40.47;101397.63;5002729;28;20197;-70
2023/06/12 06:27:18;;;;;;;9.03;4.13;;;;;;;18.21;40.66;101399.16;4993934;28;20208;-70
2023/06/12 06:29:44;;;;;;;6.37;3.80;;;;;;;18.22;40.57;101397.28;5006947;28;20287;-70
2023/06/12 06:32:11;;;;;;;4.13;3.60;;;;;;;18.20;40.77;101397.63;5002981;28;20219;-70
2023/06/12 06:34:38;;;;;;;6.93;3.53;;;;;;;18.23;40.78;101409.50;4989573;28;20245;-70
2023/06/12 06:37:04;;;;;;;5.30;4.13;;;;;;;18.22;40.96;101405.28;4989489;28;20212;-70
2023/06/12 06:39:33;;;;;;;7.33;4.10;;;;;;;18.24;40.88;101405.69;5009963;28;20193;-70
2023/06/12 06:42:00;;;;;;;5.57;4.43;;;;;;;18.30;41.12;101410.41;4997892;28;20227;-70
2023/06/12 06:44:34;;;;;;;6.33;3.83;;;;;;;18.39;41.55;101394.94;4989586;28;20217;-70
2023/06/12 06:47:02;;;;;;;5.87;4.40;;;;;;;18.49;41.53;101410.38;4993988;28;20260;-70
2023/06/12 06:49:30;;;;;;;5.73;4.10;;;;;;;18.61;41.76;101412.84;5000112;28;20189;-70
2023/06/12 06:51:57;;;;;;;6.10;3.97;;;;;;;18.69;41.15;101413.72;4989987;28;20250;-70
2023/06/12 06:54:23;;;;;;;5.67;4.60;;;;;;;18.81;41.71;101408.16;4989130;28;20307;-70
2023/06/12 06:56:51;;;;;;;6.07;4.20;;;;;;;18.90;40.75;101408.69;4996369;28;20204;-70
2023/06/12 06:59:17;;;;;;;8.17;4.13;;;;;;;19.03;41.46;101413.47;4999057;28;20189;-70
2023/06/12 07:01:44;;;;;;;6.13;4.30;;;;;;;19.15;41.27;101417.84;4996278;28;20228;-70
2023/06/12 07:04:11;;;;;;;7.57;4.20;;;;;;;19.31;42.05;101407.75;4989829;28;20232;-70
2023/06/12 07:06:38;;;;;;;9.27;4.10;;;;;;;19.43;41.83;101413.66;4990971;28;20198;-70
2023/06/12 07:09:04;;;;;;;5.20;4.07;;;;;;;19.59;41.93;101422.25;5000713;28;20695;-70
2023/06/12 07:11:31;;;;;;;5.50;4.30;;;;;;;19.74;42.86;101420.50;4993267;28;20700;-70
2023/06/12 07:13:58;;;;;;;4.90;4.20;;;;;;;19.88;41.65;101423.34;4999426;28;20773;-70
2023/06/12 07:16:25;;;;;;;4.73;4.23;;;;;;;20.00;41.06;101423.09;4997864;28;20209;-70
2023/06/12 07:18:52;;;;;;;5.60;4.40;;;;;;;20.14;41.93;101437.44;4988712;28;20329;-70
2023/06/12 07:21:19;;;;;;;5.13;4.53;;;;;;;20.24;41.27;101420.66;4997862;28;20677;-70
2023/06/12 07:23:45;;;;;;;5.20;3.87;;;;;;;20.36;41.23;101435.72;5000938;28;20223;-70
2023/06/12 07:26:12;;;;;;;7.50;4.53;;;;;;;20.50;41.46;101433.16;4990698;28;20269;-70
2023/06/12 07:28:39;;;;;;;7.27;4.40;;;;;;;20.59;42.46;101422.88;4992904;28;20212;-70
2023/06/12 07:31:07;;;;;;;6.83;4.50;;;;;;;20.69;42.00;101430.25;4988442;28;20199;-70
2023/06/12 07:33:34;;;;;;;5.90;4.23;;;;;;;20.77;41.06;101421.88;4995907;28;20237;-70
2023/06/12 07:36:00;;;;;;;7.23;4.17;;;;;;;20.91;41.58;101423.91;4988762;28;20201;-70
2023/06/12 07:38:29;;;;;;;8.23;4.50;;;;;;;21.01;42.24;101429.31;4988998;28;20288;-70
2023/06/12 07:40:55;;;;;;;9.20;3.90;;;;;;;21.12;42.95;101424.03;4992119;28;20229;-70
2023/06/12 07:43:22;;;;;;;5.60;4.37;;;;;;;21.21;43.32;101413.72;4978104;28;20222;-71
2023/06/12 07:45:49;;;;;;;7.60;4.33;;;;;;;21.29;41.81;101418.75;4979571;28;20197;-71
2023/06/12 07:48:16;;;;;;;8.00;4.67;;;;;;;21.39;41.82;101412.66;4982160;28;20661;-71
2023/06/12 07:50:46;;;;;;;6.83;4.37;;;;;;;21.48;42.04;101414.97;4990277;28;20221;-71
2023/06/12 07:53:12;;;;;;;4.60;4.20;;;;;;;21.62;42.66;101409.66;4996235;28;20666;-70
2023/06/12 07:55:40;;;;;;;5.20;4.13;;;;;;;21.72;41.71;101407.03;4991096;28;20692;-70
2023/06/12 07:58:08;;;;;;;5.60;4.07;;;;;;;21.80;41.41;101407.81;4989622;28;20260;-71
2023/06/12 08:00:35;;;;;;;7.63;4.07;;;;;;;21.91;41.08;101409.38;4997474;28;20303;-71
2023/06/12 08:03:02;;;;;;;6.83;4.10;;;;;;;21.97;40.76;101405.16;4999671;28;20223;-71
2023/06/12 08:05:37;;;;;;;6.20;4.10;;;;;;;22.06;41.16;101402.88;4988560;28;20731;-71
2023/06/12 08:08:12;;;;;;;10.97;4.30;;;;;;;22.17;41.18;101405.56;4989061;28;20228;-71
2023/06/12 08:10:38;;;;;;;6.77;4.90;;;;;;;22.24;40.55;101408.28;4987175;28;20629;-71
2023/06/12 08:13:05;;;;;;;5.73;4.70;;;;;;;22.32;40.30;101410.56;4998044;28;20213;-71
2023/06/12 08:15:32;;;;;;;6.97;4.03;;;;;;;22.39;39.99;101407.09;4998815;28;20201;-71
2023/06/12 08:17:59;;;;;;;5.23;4.30;;;;;;;22.50;39.79;101405.97;4993798;28;20228;-71
2023/06/12 08:20:25;;;;;;;4.93;4.43;;;;;;;22.58;39.46;101420.22;4985490;28;20212;-70
2023/06/12 08:22:57;;;;;;;6.27;4.10;;;;;;;22.67;39.13;101407.88;4970466;28;20283;-71
2023/06/12 08:25:25;;;;;;;5.73;3.77;;;;;;;22.79;39.01;101415.56;5002712;28;20196;-70
2023/06/12 08:27:51;;;;;;;5.23;3.93;;;;;;;22.85;37.86;101414.03;4993066;28;20690;-70
2023/06/12 08:30:18;;;;;;;7.23;3.40;;;;;;;22.92;38.54;101408.59;4992228;28;20205;-71
2023/06/12 08:32:45;;;;;;;6.73;3.87;;;;;;;23.01;38.39;101402.81;4993977;28;20509;-71
2023/06/12 08:35:12;;;;;;;5.77;3.40;;;;;;;23.10;38.37;101403.19;4998775;28;20216;-71
2023/06/12 08:37:39;;;;;;;3.93;3.30;;;;;;;23.17;37.51;101392.41;4987989;28;20236;-71
2023/06/12 08:40:08;;;;;;;5.17;3.30;;;;;;;23.26;37.28;101394.69;4986898;28;20205;-71
2023/06/12 08:42:37;;;;;;;5.17;3.57;;;;;;;23.37;36.54;101387.34;4987812;28;20204;-71
2023/06/12 08:45:05;;;;;;;4.13;3.40;;;;;;;23.46;36.41;101396.53;4997416;28;20215;-71
2023/06/12 08:47:35;;;;;;;3.40;3.10;;;;;;;23.52;35.91;101393.03;4977275;28;20216;-71
2023/06/12 08:50:06;;;;;;;5.30;3.50;;;;;;;23.54;36.25;101400.72;4989338;28;20220;-71
2023/06/12 08:52:33;;;;;;;5.43;3.40;;;;;;;23.55;34.76;101402.25;4987172;28;20197;-71
2023/06/12 08:55:01;;;;;;;5.25;3.28;;;;;;;23.58;34.19;101392.63;4989269;28;20674;-71
2023/06/12 08:57:28;;;;;;;5.25;3.42;;;;;;;23.65;34.75;101396.78;4998118;28;20226;-71
2023/06/12 08:59:55;;;;;;;4.82;3.30;;;;;;;23.79;34.63;101395.97;5007002;28;20196;-71
2023/06/12 09:02:23;;;;;;;3.38;2.95;;;;;;;23.97;32.51;101406.66;4988547;28;20244;-71
2023/06/12 09:04:56;;;;;;;3.38;3.00;;;;;;;24.10;32.95;101413.13;4988905;28;20198;-71
2023/06/12 09:07:24;;;;;;;3.72;3.15;;;;;;;24.13;32.90;101406.94;4991631;28;20284;-71
2023/06/12 09:09:50;;;;;;;3.88;3.42;;;;;;;24.19;33.00;101408.06;4987811;28;20234;-71
2023/06/12 09:12:16;;;;;;;6.10;3.28;;;;;;;24.22;33.54;101409.94;4993552;28;20212;-71
2023/06/12 09:14:48;;;;;;;3.30;3.00;;;;;;;24.22;33.16;101394.53;4993520;28;20240;-71
2023/06/12 09:17:14;;;;;;;3.75;2.70;;;;;;;24.19;32.67;101411.50;4988830;28;20201;-71
2023/06/12 09:19:44;;;;;;;3.33;3.00;;;;;;;24.15;34.01;101399.97;4996018;28;20200;-71
2023/06/12 09:22:11;;;;;;;6.72;3.40;;;;;;;24.16;32.83;101395.34;5003771;28;20205;-71
2023/06/12 09:24:38;;;;;;;2.90;2.60;;;;;;;24.10;32.56;101394.25;4988608;28;20233;-71
2023/06/12 09:27:05;;;;;;;3.63;2.75;;;;;;;24.01;32.22;101394.69;4993501;28;20201;-71
2023/06/12 09:29:34;;;;;;;5.53;2.55;;;;;;;23.92;32.53;101397.06;4996847;28;20193;-71
2023/06/12 09:32:03;;;;;;;2.70;2.40;;;;;;;23.99;32.66;101401.66;4988628;28;20233;-71
2023/06/12 09:34:31;;;;;;;2.80;2.38;;;;;;;24.11;33.15;101398.47;4998796;28;20592;-71
2023/06/12 09:37:00;;;;;;;3.53;2.45;;;;;;;24.10;32.41;101386.91;4983404;28;20511;-71
2023/06/12 09:39:27;;;;;;;3.28;2.97;;;;;;;24.05;32.66;101402.75;4988222;28;20624;-71
2023/06/12 09:41:55;;;;;;;2.85;2.50;;;;;;;23.95;32.00;101398.19;4993816;28;20632;-71
2023/06/12 09:44:22;;;;;;;4.05;2.95;;;;;;;23.89;32.38;101392.44;4988659;28;20228;-71
2023/06/12 09:46:48;;;;;;;3.00;2.70;;;;;;;23.85;32.84;101394.38;4988421;28;20511;-71
2023/06/12 09:49:18;;;;;;;5.50;3.00;;;;;;;23.88;33.29;101382.03;4985820;28;20292;-71
2023/06/12 09:51:48;;;;;;;3.92;2.67;;;;;;;23.96;33.16;101381.63;4985337;28;20563;-71
2023/06/12 09:54:16;;;;;;;5.38;3.10;;;;;;;24.11;33.85;101382.28;4994572;28;20587;-71
2023/06/12 09:56:45;;;;;;;3.75;3.15;;;;;;;24.27;33.93;101374.44;5008349;28;20228;-71
2023/06/12 09:59:16;;;;;;;3.65;3.25;;;;;;;24.38;33.59;101375.88;4995696;28;20680;-71
2023/06/12 10:01:46;;;;;;;3.15;2.70;;;;;;;24.36;31.96;101380.94;5003300;28;20201;-71
2023/06/12 10:04:23;;;;;;;3.08;2.60;;;;;;;24.33;31.14;101384.41;4994651;28;20227;-71
2023/06/12 10:06:51;;;;;;;3.83;2.60;;;;;;;24.30;32.40;101379.81;4991063;28;20279;-71
2023/06/12 10:09:20;;;;;;;4.85;2.75;;;;;;;24.26;32.60;101379.09;4991600;28;20193;-71
2023/06/12 10:11:51;;;;;;;3.20;2.90;;;;;;;24.27;32.47;101369.81;4993690;28;20209;-71
2023/06/12 10:14:18;;;;;;;5.03;2.92;;;;;;;24.27;32.22;101375.22;5001181;28;20228;-71
2023/06/12 10:16:47;;;;;;;5.55;2.67;;;;;;;24.29;32.40;101364.03;4986172;28;20299;-71
2023/06/12 10:19:15;;;;;;;3.85;3.20;;;;;;;24.30;32.55;101373.66;5001912;28;20291;-71
2023/06/12 10:21:45;;;;;;;3.50;3.17;;;;;;;24.27;32.38;101370.56;4990412;28;20583;-71
2023/06/12 10:24:12;;;;;;;3.95;2.90;;;;;;;24.31;32.39;101377.88;4984331;28;20279;-71
2023/06/12 10:26:40;;;;;;;4.05;3.47;;;;;;;24.31;32.57;101377.88;4986092;28;20220;-71
2023/06/12 10:29:25;;;;;;;5.32;2.67;;;;;;;24.24;32.42;101365.19;4986430;28;20607;-71
2023/06/12 10:31:51;;;;;;;3.45;3.10;;;;;;;24.17;32.63;101364.50;4999637;28;20360;-71
2023/06/12 10:34:18;;;;;;;6.28;2.90;;;;;;;24.10;32.85;101361.84;4995740;28;20217;-71
2023/06/12 10:36:47;;;;;;;5.40;2.97;;;;;;;24.03;32.37;101362.66;4991255;28;20213;-71
2023/06/12 10:39:15;;;;;;;4.82;2.92;;;;;;;24.01;32.85;101365.00;4987967;28;20205;-71
2023/06/12 10:41:52;;;;;;;3.05;2.80;;;;;;;24.01;33.00;101356.91;4992690;28;20292;-71
2023/06/12 10:44:38;;;;;;;4.47;2.90;;;;;;;24.12;33.24;101357.59;4989817;28;20240;-71
2023/06/12 10:47:05;;;;;;;3.33;3.00;;;;;;;24.22;32.96;101350.56;4995082;28;20676;-71
2023/06/12 10:49:56;;;;;;;6.90;2.90;;;;;;;24.29;33.79;101345.88;4992506;28;20206;-71
2023/06/12 10:52:24;;;;;;;3.95;2.83;;;;;;;24.39;32.07;101349.66;4994925;28;20201;-71
2023/06/12 10:55:14;;;;;;;7.28;3.03;;;;;;;24.43;32.95;101351.91;4992975;28;20205;-71
2023/06/12 10:57:48;;;;;;;4.03;2.83;;;;;;;24.42;32.61;101344.97;4988769;28;20205;-71
2023/06/12 11:00:17;;;;;;;3.80;3.20;;;;;;;24.48;32.44;101355.34;4996892;28;20205;-71
2023/06/12 11:02:45;;;;;;;5.10;3.20;;;;;;;24.53;32.33;101340.22;4988929;28;20721;-71
2023/06/12 11:05:19;;;;;;;4.15;2.47;;;;;;;24.63;32.38;101338.66;4990476;28;20208;-71
2023/06/12 11:07:48;;;;;;;3.20;2.90;;;;;;;24.68;31.75;101337.44;4989137;28;20241;-71
2023/06/12 11:10:16;;;;;;;4.57;2.80;;;;;;;24.74;32.01;101335.81;4990584;28;20209;-71
2023/06/12 11:12:49;;;;;;;5.30;2.85;;;;;;;24.74;31.63;101328.47;4993911;28;20221;-71
2023/06/12 11:15:16;;;;;;;3.22;2.92;;;;;;;24.74;31.45;101316.91;4990323;28;20221;-71
2023/06/12 11:17:43;;;;;;;7.15;2.80;;;;;;;24.75;31.18;101311.09;4992637;28;20205;-71
2023/06/12 11:20:11;;;;;;;3.25;2.40;;;;;;;24.76;30.68;101307.22;4989360;28;20217;-71
2023/06/12 11:22:38;;;;;;;4.10;2.63;;;;;;;24.83;31.95;101298.28;4986907;28;20201;-71
2023/06/12 11:25:06;;;;;;;3.42;2.75;;;;;;;24.98;31.30;101300.41;4991624;28;20629;-71
2023/06/12 11:27:35;;;;;;;3.53;2.92;;;;;;;25.13;30.37;101306.41;5000855;28;20224;-71
2023/06/12 11:30:07;;;;;;;4.80;3.40;;;;;;;25.28;29.13;101296.97;5000278;28;20208;-71